createdAt,value
2022-10-16T00:00:24.589Z,47.16
2022-10-16T00:02:51.367Z,46.76
2022-10-16T00:05:17.846Z,46.98
2022-10-16T00:07:44.313Z,46.74
2022-10-16T00:10:10.788Z,46.82
2022-10-16T00:12:37.293Z,46.86
2022-10-16T00:15:03.976Z,46.47
2022-10-16T00:17:30.805Z,46.75
2022-10-16T00:19:57.760Z,46.55
2022-10-16T00:22:24.514Z,46.44
2022-10-16T00:24:51.390Z,46.60
2022-10-16T00:27:17.903Z,46.75
2022-10-16T00:29:44.383Z,46.41
2022-10-16T00:32:10.841Z,46.90
2022-10-16T00:34:37.378Z,46.86
2022-10-16T00:37:03.895Z,46.90
2022-10-16T00:39:30.358Z,47.01
2022-10-16T00:41:56.824Z,46.66
2022-10-16T00:44:43.255Z,46.90
2022-10-16T00:47:20.712Z,47.05
2022-10-16T00:49:47.683Z,46.82
2022-10-16T00:52:14.188Z,47.15
2022-10-16T00:54:40.672Z,47.45
2022-10-16T00:57:07.505Z,47.24
2022-10-16T00:59:39.405Z,47.42
2022-10-16T01:02:07.028Z,47.19
2022-10-16T01:04:38.966Z,47.51
2022-10-16T01:07:36.399Z,47.33
2022-10-16T01:10:08.857Z,47.57
2022-10-16T01:12:38.816Z,47.54
2022-10-16T01:15:08.699Z,47.39
2022-10-16T01:17:38.642Z,47.24
2022-10-16T01:20:19.625Z,47.57
2022-10-16T01:23:08.185Z,47.39
2022-10-16T01:25:49.125Z,47.17
2022-10-16T01:28:15.619Z,47.25
2022-10-16T01:30:43.192Z,47.35
2022-10-16T01:33:15.660Z,47.34
2022-10-16T01:35:48.173Z,46.77
2022-10-16T01:38:21.739Z,46.73
2022-10-16T01:40:51.558Z,46.73
2022-10-16T01:43:29.878Z,46.29
2022-10-16T01:45:56.348Z,46.36
2022-10-16T01:48:23.832Z,46.29
2022-10-16T01:50:57.000Z,46.49
2022-10-16T01:53:23.465Z,46.24
2022-10-16T01:55:50.004Z,46.41
2022-10-16T01:58:16.675Z,46.23
2022-10-16T02:00:45.538Z,46.21
2022-10-16T02:03:12.355Z,46.46
2022-10-16T02:05:42.079Z,46.10
2022-10-16T02:08:08.533Z,46.48
2022-10-16T02:10:36.033Z,46.17
2022-10-16T02:13:18.374Z,46.53
2022-10-16T02:15:45.126Z,46.53
2022-10-16T02:18:11.633Z,46.40
2022-10-16T02:20:43.935Z,46.40
2022-10-16T02:23:11.862Z,46.54
2022-10-16T02:25:39.037Z,46.74
2022-10-16T02:28:09.620Z,46.70
2022-10-16T02:30:37.456Z,46.63
2022-10-16T02:33:04.749Z,46.49
2022-10-16T02:35:31.203Z,46.65
2022-10-16T02:37:57.784Z,46.88
2022-10-16T02:40:25.440Z,46.66
2022-10-16T02:42:53.087Z,46.89
2022-10-16T02:45:19.793Z,47.04
2022-10-16T02:47:46.326Z,46.97
2022-10-16T02:50:12.787Z,46.94
2022-10-16T02:52:39.527Z,46.58
2022-10-16T02:55:06.237Z,46.66
2022-10-16T02:57:32.921Z,46.97
2022-10-16T02:59:59.488Z,46.91
2022-10-16T03:02:26.110Z,46.77
2022-10-16T03:04:52.569Z,46.52
2022-10-16T03:07:19.029Z,46.59
2022-10-16T03:09:45.495Z,46.18
2022-10-16T03:12:13.042Z,46.38
2022-10-16T03:14:40.799Z,45.90
2022-10-16T03:17:07.409Z,46.26
2022-10-16T03:19:33.864Z,46.21
2022-10-16T03:22:00.315Z,45.98
2022-10-16T03:24:26.777Z,46.14
2022-10-16T03:26:53.231Z,46.09
2022-10-16T03:29:19.683Z,45.98
2022-10-16T03:31:46.211Z,46.02
2022-10-16T03:34:12.730Z,45.95
2022-10-16T03:36:39.199Z,46.21
2022-10-16T03:39:05.659Z,45.89
2022-10-16T03:41:32.123Z,46.22
2022-10-16T03:43:58.584Z,46.15
2022-10-16T03:46:25.063Z,45.86
2022-10-16T03:48:51.507Z,46.05
2022-10-16T03:51:17.982Z,46.16
2022-10-16T03:53:44.453Z,46.12
2022-10-16T03:56:10.951Z,46.29
2022-10-16T03:58:37.408Z,46.37
2022-10-16T04:01:03.918Z,46.02
2022-10-16T04:03:30.420Z,46.38
2022-10-16T04:05:56.876Z,46.17
2022-10-16T04:08:23.332Z,46.39
2022-10-16T04:10:49.828Z,46.25
2022-10-16T04:13:16.366Z,46.30
2022-10-16T04:15:42.892Z,46.06
2022-10-16T04:18:09.416Z,45.30
2022-10-16T04:20:36.048Z,45.81
2022-10-16T04:23:02.593Z,46.03
2022-10-16T04:25:29.107Z,45.87
2022-10-16T04:30:22.700Z,45.43
2022-10-16T04:32:51.050Z,45.71
2022-10-16T04:35:20.957Z,45.61
2022-10-16T04:37:47.538Z,45.33
2022-10-16T04:40:14.301Z,45.47
2022-10-16T04:42:41.658Z,45.61
2022-10-16T04:45:11.998Z,45.56
2022-10-16T04:47:41.256Z,45.33
2022-10-16T04:50:08.090Z,45.29
2022-10-16T04:55:03.670Z,45.72
2022-10-16T04:57:30.345Z,45.48
2022-10-16T04:59:56.892Z,45.42
2022-10-16T05:02:23.410Z,45.67
2022-10-16T05:04:49.894Z,45.64
2022-10-16T05:07:16.462Z,45.90
2022-10-16T05:09:42.951Z,45.71
2022-10-16T05:12:09.492Z,45.46
2022-10-16T05:14:35.981Z,45.57
2022-10-16T05:17:02.476Z,45.22
2022-10-16T05:19:29.153Z,45.03
2022-10-16T05:21:55.947Z,45.07
2022-10-16T05:24:22.425Z,44.84
2022-10-16T05:26:48.925Z,44.75
2022-10-16T05:29:15.511Z,44.85
2022-10-16T05:31:42.015Z,44.94
2022-10-16T05:34:08.489Z,44.65
2022-10-16T05:36:34.969Z,44.65
2022-10-16T05:39:01.421Z,44.53
2022-10-16T05:41:27.929Z,44.42
2022-10-16T05:43:54.452Z,44.67
2022-10-16T05:46:20.965Z,44.71
2022-10-16T05:48:47.485Z,44.61
2022-10-16T05:51:14.491Z,44.65
2022-10-16T05:53:41.474Z,44.44
2022-10-16T05:56:08.305Z,44.66
2022-10-16T05:58:36.614Z,44.82
2022-10-16T06:01:08.115Z,44.95
2022-10-16T06:03:34.962Z,44.75
2022-10-16T06:06:17.491Z,45.00
2022-10-16T06:08:44.506Z,44.97
2022-10-16T06:11:12.871Z,44.94
2022-10-16T06:13:40.537Z,45.39
2022-10-16T06:16:07.506Z,45.40
2022-10-16T06:18:34.013Z,45.11
2022-10-16T06:21:00.552Z,45.33
2022-10-16T06:23:27.071Z,45.32
2022-10-16T06:25:53.541Z,45.26
2022-10-16T06:28:20.071Z,45.42
2022-10-16T06:30:46.911Z,45.25
2022-10-16T06:33:13.476Z,45.20
2022-10-16T06:35:40.003Z,45.22
2022-10-16T06:38:06.484Z,45.25
2022-10-16T06:40:32.967Z,45.07
2022-10-16T06:42:59.420Z,45.08
2022-10-16T06:45:25.934Z,44.74
2022-10-16T06:47:52.401Z,44.66
2022-10-16T06:50:18.880Z,44.79
2022-10-16T06:52:45.334Z,44.99
2022-10-16T06:55:11.786Z,44.81
2022-10-16T06:57:38.254Z,44.95
2022-10-16T07:00:05.346Z,45.08
2022-10-16T07:02:31.808Z,45.00
2022-10-16T07:04:58.282Z,45.29
2022-10-16T07:07:27.462Z,45.08
2022-10-16T07:09:54.338Z,45.20
2022-10-16T07:12:20.815Z,45.16
2022-10-16T07:14:47.334Z,44.98
2022-10-16T07:17:13.795Z,45.19
2022-10-16T07:19:40.249Z,45.16
2022-10-16T07:22:07.476Z,45.07
2022-10-16T07:24:33.990Z,45.27
2022-10-16T07:27:00.499Z,45.23
2022-10-16T07:29:27.042Z,45.38
2022-10-16T07:31:53.558Z,45.26
2022-10-16T07:34:20.769Z,45.39
2022-10-16T07:36:49.550Z,45.15
2022-10-16T07:39:16.047Z,45.10
2022-10-16T07:41:42.522Z,45.08
2022-10-16T07:44:09.436Z,45.10
2022-10-16T07:46:36.894Z,44.94
2022-10-16T07:49:04.214Z,45.13
2022-10-16T07:51:30.923Z,45.44
2022-10-16T07:53:57.460Z,45.76
2022-10-16T07:56:23.975Z,45.57
2022-10-16T07:58:51.200Z,45.55
2022-10-16T08:01:17.897Z,45.75
2022-10-16T08:03:48.186Z,45.99
2022-10-16T08:06:14.664Z,45.75
2022-10-16T08:11:07.500Z,45.79
2022-10-16T08:16:00.261Z,45.21
2022-10-16T08:18:26.794Z,45.23
2022-10-16T08:20:57.808Z,45.05
2022-10-16T08:23:24.332Z,45.00
2022-10-16T08:25:50.856Z,45.06
2022-10-16T08:28:17.701Z,45.02
2022-10-16T08:30:44.260Z,44.98
2022-10-16T08:33:10.770Z,44.94
2022-10-16T08:35:37.238Z,44.90
2022-10-16T08:38:13.412Z,44.99
2022-10-16T08:40:39.880Z,45.04
2022-10-16T08:43:24.467Z,45.28
2022-10-16T08:46:15.899Z,44.88
2022-10-16T08:48:50.463Z,44.93
2022-10-16T08:51:38.017Z,44.99
2022-10-16T08:54:18.875Z,44.78
2022-10-16T08:56:45.356Z,44.63
2022-10-16T08:59:12.160Z,44.60
2022-10-16T09:01:41.233Z,44.84
2022-10-16T09:04:25.919Z,44.90
2022-10-16T09:07:20.386Z,44.68
2022-10-16T09:10:08.571Z,44.41
2022-10-16T09:12:45.995Z,44.41
2022-10-16T09:15:18.871Z,44.20
2022-10-16T09:18:03.646Z,44.38
2022-10-16T09:21:07.659Z,44.32
2022-10-16T09:23:37.925Z,43.83
2022-10-16T09:26:04.875Z,44.09
2022-10-16T09:28:31.437Z,43.74
2022-10-16T09:30:57.979Z,43.64
2022-10-16T09:33:26.948Z,43.67
2022-10-16T09:35:54.672Z,43.90
2022-10-16T09:38:30.903Z,43.79
2022-10-16T09:41:03.845Z,43.82
2022-10-16T09:43:55.438Z,43.93
2022-10-16T09:46:35.569Z,43.93
2022-10-16T09:49:06.379Z,43.58
2022-10-16T09:51:36.790Z,43.32
2022-10-16T09:54:08.965Z,43.13
2022-10-16T09:56:42.728Z,42.85
2022-10-16T09:59:18.591Z,42.87
2022-10-16T10:01:54.571Z,42.74
2022-10-16T10:04:21.471Z,42.63
2022-10-16T10:06:51.926Z,42.59
2022-10-16T10:09:25.126Z,42.73
2022-10-16T10:11:55.482Z,42.73
2022-10-16T10:14:21.865Z,42.92
2022-10-16T10:16:48.474Z,42.77
2022-10-16T10:19:19.215Z,43.09
2022-10-16T10:21:45.819Z,42.98
2022-10-16T10:24:13.761Z,43.11
2022-10-16T10:26:41.726Z,42.84
2022-10-16T10:29:16.689Z,42.73
2022-10-16T10:31:50.989Z,42.28
2022-10-16T10:34:58.135Z,41.94
2022-10-16T10:37:32.408Z,41.90
2022-10-16T10:40:14.470Z,42.02
2022-10-16T10:42:49.913Z,41.78
2022-10-16T10:45:46.608Z,41.70
2022-10-16T10:49:11.322Z,41.75
2022-10-16T10:52:02.888Z,41.68
2022-10-16T10:54:48.043Z,41.39
2022-10-16T10:57:20.694Z,41.35
2022-10-16T11:00:11.568Z,41.22
2022-10-16T11:02:58.397Z,41.40
2022-10-16T11:05:50.948Z,41.17
2022-10-16T11:08:19.834Z,40.95
2022-10-16T11:10:52.145Z,41.31
2022-10-16T11:13:49.864Z,41.16
2022-10-16T11:16:26.562Z,40.88
2022-10-16T11:19:19.753Z,41.08
2022-10-16T11:21:52.274Z,40.92
2022-10-16T11:24:24.726Z,40.72
2022-10-16T11:26:51.266Z,40.85
2022-10-16T11:29:28.455Z,40.79
2022-10-16T11:31:59.116Z,40.71
2022-10-16T11:34:44.372Z,40.74
2022-10-16T11:37:13.400Z,40.20
2022-10-16T11:39:40.314Z,40.08
2022-10-16T11:42:11.358Z,40.34
2022-10-16T11:45:01.962Z,40.41
2022-10-16T11:50:40.807Z,40.98
2022-10-16T11:53:31.880Z,40.42
2022-10-16T11:55:58.347Z,40.25
2022-10-16T11:58:35.278Z,40.21
2022-10-16T12:01:10.775Z,40.53
2022-10-16T12:03:55.328Z,40.41
2022-10-16T12:06:45.005Z,40.27
2022-10-16T12:09:20.053Z,40.33
2022-10-16T12:11:46.631Z,40.44
2022-10-16T12:14:13.133Z,40.23
2022-10-16T12:17:22.880Z,40.45
2022-10-16T12:20:00.437Z,40.16
2022-10-16T12:22:29.025Z,40.50
2022-10-16T12:24:55.803Z,40.44
2022-10-16T12:27:30.312Z,40.35
2022-10-16T12:30:04.263Z,41.13
2022-10-16T12:32:46.228Z,43.01
2022-10-16T12:35:27.303Z,41.66
2022-10-16T12:37:53.818Z,42.63
2022-10-16T12:40:29.443Z,41.64
2022-10-16T12:42:55.927Z,43.54
2022-10-16T12:45:34.849Z,41.41
2022-10-16T12:48:02.484Z,40.11
2022-10-16T12:50:32.228Z,41.41
2022-10-16T12:52:59.302Z,41.86
2022-10-16T12:55:25.839Z,42.35
2022-10-16T12:58:04.428Z,41.93
2022-10-16T13:00:51.690Z,41.36
2022-10-16T13:03:42.006Z,41.94
2022-10-16T13:06:27.292Z,40.88
2022-10-16T13:09:05.854Z,40.57
2022-10-16T13:12:10.156Z,41.42
2022-10-16T13:15:14.337Z,41.41
2022-10-16T13:18:20.707Z,43.21
2022-10-16T13:21:23.515Z,43.19
2022-10-16T13:23:58.538Z,43.91
2022-10-16T13:26:41.209Z,42.24
2022-10-16T13:29:08.093Z,42.73
2022-10-16T13:31:35.425Z,43.58
2022-10-16T13:34:01.917Z,42.85
2022-10-16T13:36:48.252Z,43.75
2022-10-16T13:39:25.608Z,44.08
2022-10-16T13:42:04.814Z,44.43
2022-10-16T13:44:54.979Z,44.80
2022-10-16T13:47:23.801Z,44.24
2022-10-16T13:50:16.536Z,44.20
2022-10-16T13:52:43.054Z,44.26
2022-10-16T13:55:17.426Z,44.31
2022-10-16T13:57:44.066Z,44.24
2022-10-16T14:00:24.646Z,44.87
2022-10-16T14:02:59.918Z,44.91
2022-10-16T14:05:26.538Z,45.60
2022-10-16T14:07:53.024Z,44.34
2022-10-16T14:10:25.399Z,46.90
2022-10-16T14:12:56.687Z,46.12
2022-10-16T14:15:23.193Z,44.38
2022-10-16T14:17:51.271Z,43.87
2022-10-16T14:20:17.724Z,44.10
2022-10-16T14:22:44.295Z,43.61
2022-10-16T14:25:19.957Z,43.51
2022-10-16T14:27:46.511Z,43.48
2022-10-16T14:30:20.956Z,43.41
2022-10-16T14:32:57.437Z,43.27
2022-10-16T14:35:33.000Z,43.51
2022-10-16T14:38:00.270Z,43.72
2022-10-16T14:40:31.502Z,43.58
2022-10-16T14:42:58.252Z,43.54
2022-10-16T14:45:27.204Z,43.33
2022-10-16T14:47:55.472Z,43.32
2022-10-16T14:50:22.192Z,43.58
2022-10-16T14:52:48.760Z,43.57
2022-10-16T14:55:15.420Z,43.91
2022-10-16T14:57:41.990Z,43.85
2022-10-16T15:00:26.695Z,43.92
2022-10-16T15:02:53.275Z,43.93
2022-10-16T15:05:20.604Z,43.93
2022-10-16T15:07:47.300Z,43.82
2022-10-16T15:10:14.615Z,43.84
2022-10-16T15:12:41.384Z,43.93
2022-10-16T15:15:29.324Z,44.09
2022-10-16T15:18:01.502Z,45.43
2022-10-16T15:20:28.969Z,45.05
2022-10-16T15:22:55.505Z,48.41
2022-10-16T15:25:32.914Z,48.35
2022-10-16T15:28:00.454Z,47.19
2022-10-16T15:30:26.927Z,47.11
2022-10-16T15:32:53.409Z,46.47
2022-10-16T15:35:19.924Z,46.58
2022-10-16T15:37:48.304Z,46.30
2022-10-16T15:40:15.021Z,46.10
2022-10-16T15:42:41.483Z,45.73
2022-10-16T15:45:08.532Z,46.18
2022-10-16T15:47:35.064Z,45.73
2022-10-16T15:50:01.538Z,45.76
2022-10-16T15:52:29.714Z,45.43
2022-10-16T15:54:56.627Z,45.64
2022-10-16T15:57:25.946Z,45.82
2022-10-16T15:59:52.419Z,45.57
2022-10-16T16:02:19.516Z,45.74
2022-10-16T16:04:46.312Z,45.38
2022-10-16T16:07:15.969Z,45.42
2022-10-16T16:09:42.602Z,45.27
2022-10-16T16:12:09.079Z,45.25
2022-10-16T16:14:35.558Z,45.23
2022-10-16T16:17:05.965Z,45.35
2022-10-16T16:19:33.253Z,45.59
2022-10-16T16:22:00.086Z,45.27
2022-10-16T16:24:26.575Z,45.74
2022-10-16T16:26:55.243Z,45.51
2022-10-16T16:29:22.071Z,45.59
2022-10-16T16:31:48.549Z,45.50
2022-10-16T16:34:15.477Z,45.30
2022-10-16T16:36:42.002Z,45.61
2022-10-16T16:39:08.663Z,45.55
2022-10-16T16:41:35.899Z,45.46
2022-10-16T16:44:04.438Z,45.79
2022-10-16T16:46:32.139Z,45.89
2022-10-16T16:49:00.594Z,45.77
2022-10-16T16:51:30.673Z,45.70
2022-10-16T16:53:57.507Z,46.13
2022-10-16T16:56:27.329Z,46.30
2022-10-16T16:58:55.530Z,46.00
2022-10-16T17:01:23.005Z,46.10
2022-10-16T17:03:53.586Z,46.42
2022-10-16T17:06:27.080Z,46.00
2022-10-16T17:08:54.200Z,45.93
2022-10-16T17:11:22.418Z,46.06
2022-10-16T17:13:54.024Z,45.88
2022-10-16T17:16:40.974Z,45.83
2022-10-16T17:19:08.228Z,46.13
2022-10-16T17:21:37.982Z,46.06
2022-10-16T17:24:05.988Z,45.94
2022-10-16T17:26:34.301Z,46.40
2022-10-16T17:29:01.903Z,46.35
2022-10-16T17:31:30.448Z,45.99
2022-10-16T17:33:59.229Z,45.69
2022-10-16T17:36:35.082Z,45.72
2022-10-16T17:39:07.074Z,45.97
2022-10-16T17:41:34.405Z,46.24
2022-10-16T17:44:00.916Z,45.95
2022-10-16T17:46:29.628Z,46.16
2022-10-16T17:48:57.576Z,45.97
2022-10-16T17:51:25.891Z,46.23
2022-10-16T17:53:55.019Z,46.32
2022-10-16T17:56:23.916Z,46.16
2022-10-16T17:58:52.934Z,46.01
2022-10-16T18:01:24.887Z,46.10
2022-10-16T18:03:59.837Z,45.96
2022-10-16T18:06:34.050Z,46.07
2022-10-16T18:09:01.055Z,45.94
2022-10-16T18:11:28.068Z,46.00
2022-10-16T18:13:55.838Z,46.13
2022-10-16T18:16:22.621Z,46.34
2022-10-16T18:18:49.749Z,46.07
2022-10-16T18:21:17.795Z,46.12
2022-10-16T18:23:49.065Z,46.21
2022-10-16T18:26:18.744Z,46.24
2022-10-16T18:28:45.410Z,46.14
2022-10-16T18:31:20.737Z,46.55
2022-10-16T18:33:51.504Z,46.15
2022-10-16T18:36:23.591Z,46.22
2022-10-16T18:38:51.785Z,46.43
2022-10-16T18:41:18.655Z,46.41
2022-10-16T18:43:45.403Z,46.39
2022-10-16T18:46:13.553Z,46.08
2022-10-16T18:48:41.664Z,46.05
2022-10-16T18:51:23.369Z,45.92
2022-10-16T18:53:54.241Z,46.13
2022-10-16T18:56:23.571Z,46.04
2022-10-16T18:58:50.406Z,45.75
2022-10-16T19:01:21.043Z,46.04
2022-10-16T19:03:48.300Z,45.93
2022-10-16T19:06:15.699Z,45.79
2022-10-16T19:08:42.495Z,45.48
2022-10-16T19:11:20.326Z,45.94
2022-10-16T19:13:48.580Z,45.63
2022-10-16T19:16:20.920Z,45.95
2022-10-16T19:18:48.974Z,45.61
2022-10-16T19:21:15.786Z,45.81
2022-10-16T19:23:44.432Z,45.84
2022-10-16T19:26:12.576Z,45.73
2022-10-16T19:28:39.385Z,45.97
2022-10-16T19:31:11.572Z,45.70
2022-10-16T19:33:39.786Z,46.20
2022-10-16T19:36:13.063Z,45.94
2022-10-16T19:38:40.308Z,46.09
2022-10-16T19:41:13.605Z,46.18
2022-10-16T19:43:40.227Z,46.08
2022-10-16T19:46:13.064Z,45.90
2022-10-16T19:48:41.455Z,46.06
2022-10-16T19:51:18.592Z,46.21
2022-10-16T19:53:46.504Z,45.92
2022-10-16T19:56:17.015Z,46.33
2022-10-16T19:58:43.746Z,46.16
2022-10-16T20:01:13.568Z,46.65
2022-10-16T20:03:43.087Z,46.48
2022-10-16T20:06:09.917Z,46.27
2022-10-16T20:08:37.699Z,46.49
2022-10-16T20:11:04.535Z,46.68
2022-10-16T20:13:31.184Z,46.29
2022-10-16T20:15:59.387Z,46.68
2022-10-16T20:18:26.253Z,46.50
2022-10-16T20:20:52.794Z,46.37
2022-10-16T20:23:19.410Z,46.23
2022-10-16T20:25:46.087Z,46.22
2022-10-16T20:28:14.093Z,46.47
2022-10-16T20:30:43.145Z,46.66
2022-10-16T20:33:09.945Z,46.58
2022-10-16T20:35:37.891Z,46.42
2022-10-16T20:38:04.365Z,46.58
2022-10-16T20:40:31.093Z,46.65
2022-10-16T20:42:58.637Z,46.62
2022-10-16T20:45:25.552Z,46.64
2022-10-16T20:47:52.011Z,46.80
2022-10-16T20:50:19.918Z,46.65
2022-10-16T20:52:46.385Z,46.54
2022-10-16T20:55:13.301Z,46.73
2022-10-16T20:57:40.118Z,46.64
2022-10-16T21:00:07.185Z,46.93
2022-10-16T21:02:34.102Z,46.55
2022-10-16T21:05:00.785Z,47.71
2022-10-16T21:07:28.662Z,47.39
2022-10-16T21:09:57.638Z,46.85
2022-10-16T21:12:26.230Z,46.89
2022-10-16T21:15:13.289Z,47.14
2022-10-16T21:17:40.188Z,47.30
2022-10-16T21:20:07.338Z,47.30
2022-10-16T21:22:34.909Z,47.46
2022-10-16T21:25:01.725Z,47.29
2022-10-16T21:27:28.414Z,47.27
2022-10-16T21:29:58.965Z,47.28
2022-10-16T21:32:26.153Z,47.30
2022-10-16T21:34:53.775Z,47.30
2022-10-16T21:37:22.764Z,47.30
2022-10-16T21:39:49.295Z,47.55
2022-10-16T21:42:16.788Z,47.32
2022-10-16T21:44:43.466Z,47.58
2022-10-16T21:47:13.389Z,47.35
2022-10-16T21:49:40.884Z,47.34
2022-10-16T21:52:07.750Z,47.26
2022-10-16T21:54:34.971Z,47.59
2022-10-16T21:57:01.511Z,47.29
2022-10-16T21:59:28.406Z,47.59
2022-10-16T22:01:55.181Z,47.38
2022-10-16T22:04:23.604Z,47.55
2022-10-16T22:06:52.462Z,47.58
2022-10-16T22:09:20.557Z,47.22
2022-10-16T22:11:49.630Z,47.42
2022-10-16T22:14:21.180Z,47.28
2022-10-16T22:16:50.063Z,47.30
2022-10-16T22:19:20.949Z,47.60
2022-10-16T22:21:47.634Z,47.30
2022-10-16T22:24:20.280Z,47.36
2022-10-16T22:26:48.582Z,47.56
2022-10-16T22:29:17.363Z,47.64
2022-10-16T22:31:44.199Z,47.28
2022-10-16T22:34:13.898Z,47.72
2022-10-16T22:36:43.645Z,47.36
2022-10-16T22:39:10.712Z,47.33
2022-10-16T22:41:40.259Z,47.68
2022-10-16T22:44:11.861Z,47.78
2022-10-16T22:46:39.422Z,47.60
2022-10-16T22:49:06.296Z,47.33
2022-10-16T22:51:32.767Z,47.45
2022-10-16T22:53:59.295Z,47.75
2022-10-16T22:56:27.398Z,47.63
2022-10-16T22:58:55.717Z,47.30
2022-10-16T23:01:33.516Z,47.42
2022-10-16T23:04:01.755Z,47.51
2022-10-16T23:06:29.604Z,47.57
2022-10-16T23:08:57.862Z,47.43
2022-10-16T23:11:24.587Z,47.57
2022-10-16T23:13:51.750Z,47.41
2022-10-16T23:16:21.542Z,47.35
2022-10-16T23:18:49.483Z,47.53
2022-10-16T23:21:18.824Z,47.39
2022-10-16T23:23:46.570Z,47.67
2022-10-16T23:26:14.637Z,47.56
2022-10-16T23:28:43.956Z,47.51
2022-10-16T23:31:16.041Z,47.72
2022-10-16T23:33:43.952Z,47.70
2022-10-16T23:36:13.016Z,47.81
2022-10-16T23:38:41.823Z,47.84
2022-10-16T23:41:11.200Z,47.64
2022-10-16T23:43:37.685Z,47.84
2022-10-16T23:46:06.214Z,47.76
2022-10-16T23:48:34.804Z,47.65
2022-10-16T23:51:01.292Z,47.58
2022-10-16T23:53:27.755Z,47.53
2022-10-16T23:55:54.719Z,47.64
2022-10-16T23:58:21.284Z,47.48
